Time;durP1;ratioP1;P1;durP2;ratioP2;P2;SDS_P1;SDS_P2;PMS_P1;PMS_P2;Temp;Humidity;BMP_temperature;BMP_pressure;BME280_temperature;BME280_humidity;BME280_pressure;Samples;Min_cycle;Max_cycle;Signal;HPM_P1;HPM_P2
2022/12/02 00:02:42;;;;;;;24.23;14.40;;;;;;;1.35;60.63;101447.56;10110270;29;20236;-80
2022/12/02 00:08:35;;;;;;;23.67;14.57;;;;;;;0.95;61.73;101437.28;10117510;29;20228;-82
2022/12/02 00:13:59;;;;;;;23.10;15.40;;;;;;;0.89;60.62;101432.69;10116641;29;20316;-83
2022/12/02 00:19:22;;;;;;;22.43;13.27;;;;;;;1.24;60.70;101436.22;10120308;29;20232;-79
2022/12/02 00:24:44;;;;;;;25.17;14.83;;;;;;;0.83;61.49;101423.41;10118685;29;20288;-79
2022/12/02 00:30:06;;;;;;;24.73;14.57;;;;;;;0.84;62.39;101430.63;10132865;29;20233;-79
2022/12/02 00:35:29;;;;;;;28.20;17.30;;;;;;;0.93;62.64;101414.47;10134422;29;20300;-80
2022/12/02 00:40:51;;;;;;;30.93;18.33;;;;;;;1.16;62.98;101406.06;10116294;29;20224;-79
2022/12/02 00:46:31;;;;;;;34.63;19.57;;;;;;;0.92;63.48;101410.84;10140706;29;20270;-80
2022/12/02 00:51:53;;;;;;;36.27;21.27;;;;;;;1.17;63.33;101405.00;10132143;29;20237;-83
2022/12/02 00:57:15;;;;;;;36.70;21.47;;;;;;;0.62;65.20;101392.69;10132554;29;20213;-80
2022/12/02 01:02:37;;;;;;;42.60;21.30;;;;;;;0.85;64.82;101387.94;10105421;29;20261;-80
2022/12/02 01:07:59;;;;;;;34.23;20.97;;;;;;;1.14;64.18;101388.81;10119257;29;20257;-80
2022/12/02 01:13:22;;;;;;;42.07;22.43;;;;;;;1.16;63.75;101378.31;10141705;29;20217;-84
2022/12/02 01:18:44;;;;;;;40.43;22.30;;;;;;;1.18;64.05;101381.69;10119942;29;20262;-80
2022/12/02 01:24:06;;;;;;;40.43;22.73;;;;;;;1.44;63.75;101374.69;10095679;29;20480;-80
2022/12/02 01:29:28;;;;;;;41.90;22.77;;;;;;;1.39;64.09;101377.34;10122719;29;20201;-80
2022/12/02 01:34:50;;;;;;;40.33;23.00;;;;;;;1.02;64.74;101388.00;10124734;29;20213;-81
2022/12/02 01:40:13;;;;;;;46.67;23.00;;;;;;;1.45;64.28;101381.09;10116530;29;20524;-80
2022/12/02 01:45:35;;;;;;;43.23;22.03;;;;;;;1.42;64.28;101378.81;10120297;29;20236;-80
2022/12/02 01:50:58;;;;;;;47.57;23.63;;;;;;;0.73;65.62;101383.50;10120554;29;20257;-80
2022/12/02 01:56:20;;;;;;;49.83;24.40;;;;;;;1.15;65.86;101386.88;10108773;29;20261;-80
2022/12/02 02:01:43;;;;;;;40.57;21.00;;;;;;;1.29;65.46;101377.16;10136155;29;20217;-79
2022/12/02 02:07:05;;;;;;;43.60;23.53;;;;;;;0.56;67.12;101378.72;10122440;29;20503;-80
2022/12/02 02:12:27;;;;;;;48.33;24.10;;;;;;;1.51;63.89;101371.75;10136742;29;20213;-80
2022/12/02 02:17:49;;;;;;;47.87;23.63;;;;;;;1.02;66.03;101381.63;10139734;29;20205;-81
2022/12/02 02:23:21;;;;;;;51.40;24.40;;;;;;;1.27;64.81;101377.41;10114494;29;20241;-81
2022/12/02 02:28:43;;;;;;;44.57;24.37;;;;;;;1.31;65.74;101366.66;10117943;29;20265;-80
2022/12/02 02:34:07;;;;;;;52.20;24.40;;;;;;;1.58;64.62;101362.16;10117699;29;20619;-79
2022/12/02 02:39:29;;;;;;;50.60;25.77;;;;;;;1.47;64.52;101357.53;10115452;29;20209;-80
2022/12/02 02:44:52;;;;;;;47.47;25.17;;;;;;;1.00;66.25;101351.31;10114809;29;20222;-80
2022/12/02 02:50:16;;;;;;;50.63;25.57;;;;;;;1.04;65.71;101338.66;10071186;29;20233;-80
2022/12/02 02:55:38;;;;;;;54.80;24.57;;;;;;;0.79;66.71;101335.34;10123579;29;20331;-84
2022/12/02 03:01:07;;;;;;;53.70;25.60;;;;;;;1.09;66.88;101330.41;10120568;29;20201;-80
2022/12/02 03:06:31;;;;;;;51.47;26.37;;;;;;;1.29;66.50;101332.72;10115246;29;20941;-81
2022/12/02 03:11:54;;;;;;;50.10;24.70;;;;;;;1.15;66.76;101321.09;10132987;29;20228;-80
2022/12/02 03:17:16;;;;;;;53.53;25.10;;;;;;;1.20;66.17;101312.88;10127181;29;20201;-79
2022/12/02 03:22:38;;;;;;;49.57;24.80;;;;;;;1.07;66.50;101312.31;10135924;29;20249;-79
2022/12/02 03:28:00;;;;;;;57.07;26.37;;;;;;;1.29;65.73;101308.59;10138924;29;20598;-80
2022/12/02 03:33:23;;;;;;;49.40;22.87;;;;;;;1.68;66.02;101312.31;10118189;29;20244;-79
2022/12/02 03:38:45;;;;;;;49.63;23.83;;;;;;;1.25;66.48;101303.75;10121034;29;20488;-80
2022/12/02 03:44:07;;;;;;;53.47;25.70;;;;;;;1.41;66.39;101310.44;10126364;29;20249;-79
2022/12/02 03:49:32;;;;;;;51.87;24.13;;;;;;;1.20;66.14;101306.47;10110239;29;20309;-82
2022/12/02 03:54:54;;;;;;;45.93;23.20;;;;;;;0.83;67.46;101300.44;10119415;29;20620;-79
2022/12/02 04:00:16;;;;;;;49.97;24.83;;;;;;;1.24;66.44;101294.59;10120778;29;20205;-80
2022/12/02 04:05:38;;;;;;;48.47;24.27;;;;;;;0.92;67.30;101290.66;10121217;29;20221;-79
2022/12/02 04:11:02;;;;;;;50.30;24.03;;;;;;;0.83;68.15;101281.03;10103433;29;20209;-79
2022/12/02 04:16:24;;;;;;;57.20;25.90;;;;;;;1.15;67.19;101271.09;10095393;29;20256;-83
2022/12/02 04:21:46;;;;;;;47.23;24.47;;;;;;;1.06;68.25;101280.94;10117853;29;20309;-80
2022/12/02 04:27:08;;;;;;;57.93;26.17;;;;;;;0.80;69.98;101270.44;10127199;29;20479;-81
2022/12/02 04:32:30;;;;;;;58.63;25.77;;;;;;;1.04;69.35;101268.41;10120984;29;20268;-82
2022/12/02 04:37:54;;;;;;;54.27;24.40;;;;;;;1.05;69.27;101275.63;10130106;29;20214;-79
2022/12/02 04:43:16;;;;;;;57.90;26.40;;;;;;;0.79;70.84;101272.38;10131701;29;20320;-79
2022/12/02 04:48:38;;;;;;;62.23;25.90;;;;;;;0.88;71.17;101278.38;10132062;29;20237;-79
2022/12/02 04:54:00;;;;;;;61.17;26.20;;;;;;;0.85;70.93;101271.38;10112593;29;20594;-82
2022/12/02 04:59:22;;;;;;;62.87;27.20;;;;;;;0.56;71.32;101261.38;10114593;29;20233;-79
2022/12/02 05:04:44;;;;;;;62.73;28.63;;;;;;;0.41;71.74;101263.81;10112755;29;20260;-79
2022/12/02 05:10:07;;;;;;;56.07;26.33;;;;;;;0.85;71.08;101259.41;10130870;29;20288;-79
2022/12/02 05:15:29;;;;;;;59.73;27.27;;;;;;;0.68;70.26;101250.22;10112995;29;20253;-80
2022/12/02 05:20:51;;;;;;;64.27;26.73;;;;;;;0.96;69.28;101248.25;10106641;29;20221;-79
2022/12/02 05:26:13;;;;;;;57.30;27.60;;;;;;;1.15;68.80;101237.78;10128848;29;20228;-81
2022/12/02 05:31:36;;;;;;;61.33;28.27;;;;;;;0.77;70.56;101234.84;10125649;29;20269;-80
2022/12/02 05:36:58;;;;;;;57.57;26.80;;;;;;;0.91;69.89;101236.25;10126703;29;20245;-80
2022/12/02 05:42:20;;;;;;;59.07;27.00;;;;;;;0.80;68.66;101231.59;10102699;29;20201;-80
2022/12/02 05:47:43;;;;;;;65.07;26.00;;;;;;;1.14;68.24;101230.56;10130629;29;20559;-84
2022/12/02 05:53:06;;;;;;;59.57;26.50;;;;;;;0.24;70.27;101241.50;10110774;29;20217;-81
2022/12/02 05:58:28;;;;;;;57.67;26.40;;;;;;;0.10;70.87;101242.88;10122590;29;20253;-81
2022/12/02 06:03:50;;;;;;;60.83;26.87;;;;;;;0.72;69.75;101248.63;10128674;29;20277;-81
2022/12/02 06:09:14;;;;;;;57.73;25.87;;;;;;;0.78;69.27;101247.66;10124092;29;20205;-82
2022/12/02 06:14:38;;;;;;;54.90;24.90;;;;;;;0.42;68.66;101244.16;10117735;29;20225;-81
2022/12/02 06:20:00;;;;;;;53.40;25.07;;;;;;;0.72;68.20;101248.63;10122772;29;20254;-82
2022/12/02 06:25:28;;;;;;;49.83;23.43;;;;;;;0.89;68.94;101243.97;10135201;29;20208;-82
2022/12/02 06:30:54;;;;;;;49.60;21.83;;;;;;;0.96;67.65;101244.66;10121254;29;20197;-82
2022/12/02 06:36:24;;;;;;;53.40;22.33;;;;;;;0.56;68.58;101247.50;10134485;29;20295;-81
2022/12/02 06:41:46;;;;;;;48.97;21.67;;;;;;;0.79;67.13;101254.88;10121321;29;20200;-82
2022/12/02 06:47:36;;;;;;;46.87;21.53;;;;;;;0.88;67.48;101256.16;10133752;29;20201;-81
2022/12/02 06:53:33;;;;;;;46.00;20.87;;;;;;;0.87;67.44;101244.22;10131417;29;20233;-81
2022/12/02 06:59:03;;;;;;;51.07;21.70;;;;;;;0.79;67.77;101244.63;10115572;29;20520;-82
2022/12/02 07:04:30;;;;;;;41.77;20.43;;;;;;;0.70;67.66;101242.50;10109077;29;20217;-86
2022/12/02 07:09:56;;;;;;;41.50;20.93;;;;;;;0.74;66.98;101247.28;10121274;29;20594;-81
2022/12/02 07:15:26;;;;;;;41.93;20.47;;;;;;;0.52;68.32;101244.38;10120801;29;20225;-81
2022/12/02 07:20:49;;;;;;;49.80;21.20;;;;;;;0.89;67.61;101246.75;10122037;29;20276;-81
2022/12/02 07:26:11;;;;;;;39.50;19.57;;;;;;;0.49;68.19;101242.06;10130322;29;20309;-81
2022/12/02 07:31:33;;;;;;;34.57;18.53;;;;;;;0.53;67.46;101243.28;10102085;29;20229;-85
2022/12/02 07:36:55;;;;;;;36.03;19.33;;;;;;;0.79;66.45;101243.78;10116812;29;20257;-80
2022/12/02 07:42:17;;;;;;;36.73;18.43;;;;;;;0.45;69.06;101248.34;10116513;29;20658;-81
2022/12/02 07:47:39;;;;;;;34.50;17.77;;;;;;;0.70;68.22;101245.28;10113609;29;20225;-84
2022/12/02 07:53:01;;;;;;;28.73;16.63;;;;;;;0.84;67.68;101235.53;10135080;29;20249;-84
2022/12/02 07:58:23;;;;;;;28.77;15.13;;;;;;;0.64;67.17;101235.16;10137308;29;20265;-81
2022/12/02 08:03:45;;;;;;;29.20;15.93;;;;;;;0.40;67.17;101234.41;10124490;29;20226;-82
2022/12/02 08:09:08;;;;;;;28.20;14.63;;;;;;;0.55;66.91;101232.78;10112954;29;20205;-81
2022/12/02 08:14:30;;;;;;;27.47;15.00;;;;;;;0.67;67.10;101234.66;10120994;29;20253;-81
2022/12/02 08:19:52;;;;;;;35.97;17.20;;;;;;;0.91;65.74;101239.03;10111024;29;20201;-81
2022/12/02 08:25:14;;;;;;;28.43;16.23;;;;;;;1.08;66.18;101237.13;10109048;29;20213;-81
2022/12/02 08:30:36;;;;;;;29.07;16.27;;;;;;;0.04;68.62;101239.16;10119326;29;20204;-81
2022/12/02 08:35:59;;;;;;;34.80;17.93;;;;;;;0.53;67.44;101228.56;10139986;29;20232;-81
2022/12/02 08:41:21;;;;;;;32.97;15.87;;;;;;;0.18;67.17;101240.56;10125774;29;20225;-81
2022/12/02 08:46:43;;;;;;;29.90;16.57;;;;;;;0.76;65.67;101247.88;10109160;29;20268;-83
2022/12/02 08:52:05;;;;;;;26.60;15.87;;;;;;;0.43;66.81;101245.00;10138375;29;20228;-82
2022/12/02 08:57:27;;;;;;;25.07;16.27;;;;;;;0.44;66.34;101246.69;10137788;29;20296;-85
2022/12/02 09:02:49;;;;;;;25.83;16.10;;;;;;;0.30;65.72;101248.88;10132144;29;20540;-82
2022/12/02 09:08:11;;;;;;;26.47;15.17;;;;;;;0.50;64.98;101252.09;10122656;29;20197;-82
2022/12/02 09:13:33;;;;;;;23.40;13.60;;;;;;;0.26;66.96;101261.53;10137567;29;20249;-82
2022/12/02 09:18:56;;;;;;;21.03;13.53;;;;;;;0.42;67.11;101257.19;10121953;29;20206;-83
2022/12/02 09:24:18;;;;;;;23.80;14.00;;;;;;;0.41;65.66;101258.28;10117657;29;20232;-82
2022/12/02 09:29:40;;;;;;;22.20;13.10;;;;;;;0.32;66.16;101260.56;10127809;29;20551;-82
2022/12/02 09:35:03;;;;;;;18.70;12.87;;;;;;;0.07;66.28;101257.19;10129282;29;20257;-81
2022/12/02 09:40:25;;;;;;;22.63;13.63;;;;;;;0.76;64.70;101258.16;10118525;29;20276;-84
2022/12/02 09:45:47;;;;;;;23.97;14.00;;;;;;;0.33;65.57;101256.69;10118670;29;20252;-85
2022/12/02 09:51:09;;;;;;;23.13;13.57;;;;;;;0.56;64.23;101245.56;10117498;29;20308;-82
2022/12/02 09:56:31;;;;;;;21.10;13.60;;;;;;;0.35;65.30;101249.00;10100066;29;20277;-81
2022/12/02 10:01:55;;;;;;;20.47;12.97;;;;;;;0.67;64.29;101248.53;10120030;29;20560;-80
2022/12/02 10:07:17;;;;;;;21.27;13.00;;;;;;;0.32;64.95;101255.03;10106063;29;20595;-84
2022/12/02 10:12:40;;;;;;;23.13;13.63;;;;;;;0.60;63.34;101252.28;10124084;29;20254;-85
2022/12/02 10:18:09;;;;;;;22.00;14.20;;;;;;;0.32;65.91;101252.25;10108438;29;20224;-80
2022/12/02 10:23:31;;;;;;;23.47;14.43;;;;;;;0.62;63.75;101246.50;10124099;29;20201;-80
2022/12/02 10:29:05;;;;;;;25.23;14.80;;;;;;;0.29;64.36;101249.09;10133529;29;20205;-82
2022/12/02 10:34:29;;;;;;;24.00;14.73;;;;;;;0.48;63.99;101231.22;10134639;29;20229;-84
2022/12/02 10:40:16;;;;;;;27.97;16.30;;;;;;;0.35;64.50;101231.50;10133944;29;20205;-81
2022/12/02 10:45:38;;;;;;;28.40;15.67;;;;;;;0.79;62.35;101233.53;10131847;29;20200;-82
2022/12/02 10:51:00;;;;;;;24.47;15.07;;;;;;;0.63;63.27;101219.59;10134323;29;20289;-81
2022/12/02 10:56:22;;;;;;;27.47;16.10;;;;;;;0.94;62.49;101222.72;10119587;29;20244;-81
2022/12/02 11:01:45;;;;;;;29.50;16.03;;;;;;;1.15;63.10;101225.84;10118771;29;20295;-74
2022/12/02 11:07:13;;;;;;;25.60;15.07;;;;;;;0.93;60.86;101211.84;10124179;29;20537;-81
2022/12/02 11:12:58;;;;;;;26.77;15.77;;;;;;;0.41;63.74;101216.69;10111387;29;20595;-86
2022/12/02 11:18:29;;;;;;;26.33;17.03;;;;;;;0.99;61.52;101205.28;10114697;29;20248;-79
2022/12/02 11:24:20;;;;;;;30.80;17.33;;;;;;;0.46;61.80;101206.50;10127340;29;20210;-87
2022/12/02 11:30:08;;;;;;;29.40;17.53;;;;;;;0.27;62.98;101202.22;10115681;29;20262;-80
2022/12/02 11:36:09;;;;;;;29.90;17.47;;;;;;;0.71;61.58;101214.47;10130604;29;20221;-85
2022/12/02 11:41:46;;;;;;;29.33;18.07;;;;;;;0.96;60.40;101206.63;10053596;29;20213;-80
2022/12/02 11:47:30;;;;;;;29.93;18.40;;;;;;;0.14;63.14;101191.41;10133730;29;20233;-80
2022/12/02 11:52:55;;;;;;;32.77;18.63;;;;;;;1.02;61.23;101193.69;10137243;29;20253;-81
2022/12/02 11:58:28;;;;;;;31.13;18.60;;;;;;;0.75;61.94;101187.09;10107354;29;20256;-81
2022/12/02 12:03:51;;;;;;;30.33;18.33;;;;;;;0.52;62.34;101190.81;10121398;29;20210;-81
2022/12/02 12:09:17;;;;;;;38.93;21.37;;;;;;;0.50;63.65;101176.34;10126775;29;20229;-81
2022/12/02 12:14:58;;;;;;;33.13;18.70;;;;;;;0.51;62.37;101175.28;10122073;29;20303;-81
2022/12/02 12:20:23;;;;;;;35.13;19.73;;;;;;;0.45;63.21;101174.31;10128589;29;20262;-81
2022/12/02 12:25:45;;;;;;;35.13;21.27;;;;;;;0.80;61.80;101176.09;10136855;29;20746;-83
2022/12/02 12:31:07;;;;;;;33.63;19.87;;;;;;;0.24;62.61;101164.72;10119736;29;20209;-81
2022/12/02 12:36:29;;;;;;;35.90;20.10;;;;;;;0.42;61.46;101160.97;10132580;29;20277;-81
2022/12/02 12:41:51;;;;;;;33.07;20.40;;;;;;;0.42;61.56;101155.41;10104038;29;20229;-81
2022/12/02 12:47:13;;;;;;;32.70;21.00;;;;;;;0.63;60.11;101150.25;10105073;29;20193;-82
2022/12/02 12:52:35;;;;;;;31.63;19.37;;;;;;;0.26;61.11;101150.63;10117111;29;20320;-80
2022/12/02 12:57:57;;;;;;;33.27;19.60;;;;;;;0.35;60.69;101143.63;10135997;29;20638;-81
2022/12/02 13:03:20;;;;;;;31.00;18.73;;;;;;;0.35;60.87;101143.63;10118196;29;20229;-82
2022/12/02 13:08:42;;;;;;;29.57;19.10;;;;;;;0.35;60.01;101146.41;10119133;29;20273;-82
2022/12/02 13:14:04;;;;;;;29.87;18.50;;;;;;;0.22;59.78;101150.28;10123442;29;20201;-82
2022/12/02 13:19:26;;;;;;;31.07;19.50;;;;;;;0.63;58.81;101156.63;10124347;29;20626;-81
2022/12/02 13:24:48;;;;;;;28.90;18.70;;;;;;;0.21;59.26;101158.81;10133207;29;20204;-82
2022/12/02 13:30:15;;;;;;;28.67;17.93;;;;;;;0.11;60.29;101144.78;10122565;29;20269;-86
2022/12/02 13:35:37;;;;;;;26.30;17.90;;;;;;;0.34;59.59;101152.19;10131731;29;20205;-81
2022/12/02 13:40:59;;;;;;;25.40;18.10;;;;;;;0.20;60.49;101140.50;10119898;29;20506;-82
2022/12/02 13:46:21;;;;;;;23.60;17.17;;;;;;;0.26;60.27;101156.16;10118397;29;20237;-81
2022/12/02 13:51:43;;;;;;;26.67;19.07;;;;;;;0.09;60.13;101149.72;10113992;29;20254;-87
2022/12/02 13:57:05;;;;;;;27.77;18.00;;;;;;;0.33;58.95;101150.50;10114278;29;20292;-86
2022/12/02 14:02:27;;;;;;;27.73;18.77;;;;;;;0.08;60.47;101159.09;10127633;29;20603;-86
2022/12/02 14:07:49;;;;;;;27.07;18.37;;;;;;;-0.16;60.25;101169.41;10117436;29;20197;-82
2022/12/02 14:13:11;;;;;;;28.37;17.30;;;;;;;-0.01;59.86;101157.81;10108262;29;20305;-82
2022/12/02 14:18:33;;;;;;;27.77;19.07;;;;;;;0.00;60.71;101157.56;10108409;29;20583;-81
2022/12/02 14:23:56;;;;;;;23.43;16.63;;;;;;;0.51;60.69;101162.25;10109833;29;20606;-82
2022/12/02 14:29:18;;;;;;;23.77;16.27;;;;;;;-0.32;60.73;101165.47;10110586;29;20205;-81
2022/12/02 14:34:40;;;;;;;24.93;16.83;;;;;;;-0.17;61.40;101174.09;10091111;29;20277;-81
2022/12/02 14:40:03;;;;;;;21.70;15.00;;;;;;;-0.12;61.47;101174.22;10101703;29;20461;-83
2022/12/02 14:45:25;;;;;;;20.17;15.00;;;;;;;-0.40;62.05;101176.06;10114875;29;20594;-84
2022/12/02 14:50:51;;;;;;;20.63;13.90;;;;;;;0.09;61.39;101182.97;10129708;29;20568;-82
2022/12/02 14:56:13;;;;;;;18.97;13.77;;;;;;;0.29;60.16;101177.88;10132424;29;20213;-81
2022/12/02 15:01:36;;;;;;;19.20;13.70;;;;;;;0.04;59.89;101177.34;10116345;29;20205;-81
2022/12/02 15:06:58;;;;;;;19.07;13.97;;;;;;;-0.29;62.13;101184.38;10116987;29;20201;-81
2022/12/02 15:12:20;;;;;;;19.80;13.57;;;;;;;0.61;63.75;101192.09;10118498;29;20208;-76
2022/12/02 15:17:42;;;;;;;23.20;16.07;;;;;;;-0.59;63.48;101197.50;10130033;29;20248;-82
2022/12/02 15:23:04;;;;;;;23.67;15.93;;;;;;;-0.42;63.31;101190.16;10121719;29;20296;-83
2022/12/02 15:28:26;;;;;;;22.63;16.27;;;;;;;-0.46;63.74;101191.72;10100273;29;20216;-81
2022/12/02 15:33:48;;;;;;;21.33;16.47;;;;;;;-0.25;63.99;101191.13;10106703;29;20613;-81
2022/12/02 15:39:10;;;;;;;26.07;17.53;;;;;;;0.10;62.81;101202.13;10104126;29;20650;-83
2022/12/02 15:44:32;;;;;;;23.87;16.00;;;;;;;-0.41;63.66;101194.63;10118160;29;20225;-82
2022/12/02 15:49:54;;;;;;;25.03;15.87;;;;;;;-0.31;65.42;101194.84;10090534;29;20252;-83
2022/12/02 15:55:17;;;;;;;23.33;16.90;;;;;;;-0.30;64.25;101199.31;10102638;29;20280;-79
2022/12/02 16:00:39;;;;;;;24.77;17.30;;;;;;;-0.38;65.28;101194.13;10120183;29;20233;-82
2022/12/02 16:06:01;;;;;;;25.60;16.97;;;;;;;-0.71;66.10;101207.72;10119497;29;20225;-80
2022/12/02 16:11:23;;;;;;;22.97;16.90;;;;;;;-0.61;64.98;101199.69;10103067;29;20561;-83
2022/12/02 16:16:45;;;;;;;27.37;18.30;;;;;;;-0.46;65.51;101208.34;10108452;29;20312;-81
2022/12/02 16:22:08;;;;;;;24.93;17.47;;;;;;;-0.83;67.21;101214.09;10079071;29;20265;-82
2022/12/02 16:27:30;;;;;;;26.27;17.80;;;;;;;-0.66;66.24;101213.38;10111974;29;20285;-81
2022/12/02 16:32:53;;;;;;;23.50;16.57;;;;;;;-0.80;66.76;101217.47;10121532;29;20296;-80
2022/12/02 16:38:15;;;;;;;22.03;15.37;;;;;;;-0.92;66.27;101215.53;10111673;29;20563;-81
2022/12/02 16:43:38;;;;;;;22.33;15.13;;;;;;;-0.50;65.12;101218.22;10111751;29;20229;-81
2022/12/02 16:49:00;;;;;;;22.43;16.07;;;;;;;-0.68;65.27;101213.63;10109982;29;20595;-83
2022/12/02 16:54:22;;;;;;;22.60;15.50;;;;;;;-0.58;65.46;101215.78;10102991;29;20630;-83
2022/12/02 16:59:44;;;;;;;24.47;16.73;;;;;;;-0.75;66.45;101215.69;10112356;29;20308;-80
2022/12/02 17:05:07;;;;;;;24.23;16.33;;;;;;;-0.78;65.89;101209.78;10113004;29;20229;-82
2022/12/02 17:10:30;;;;;;;24.23;16.80;;;;;;;-0.76;66.18;101222.28;10084285;29;20304;-81
2022/12/02 17:15:52;;;;;;;23.83;15.53;;;;;;;-0.87;66.54;101223.97;10104358;29;20305;-81
2022/12/02 17:21:14;;;;;;;25.07;16.47;;;;;;;-0.93;66.86;101233.19;10107557;29;20237;-82
2022/12/02 17:26:36;;;;;;;26.23;16.57;;;;;;;-0.44;65.37;101224.72;10086314;29;20618;-85
2022/12/02 17:31:58;;;;;;;26.23;17.50;;;;;;;-0.57;65.58;101228.56;10126734;29;20277;-83
2022/12/02 17:37:20;;;;;;;24.00;16.10;;;;;;;-0.79;65.98;101224.69;10106382;29;20302;-82
2022/12/02 17:42:42;;;;;;;27.73;16.77;;;;;;;-0.77;65.61;101228.06;10111904;29;20802;-81
2022/12/02 17:48:04;;;;;;;25.53;16.67;;;;;;;-1.24;68.24;101244.53;10111204;29;20245;-82
2022/12/02 17:53:27;;;;;;;22.80;15.77;;;;;;;-1.09;67.04;101235.78;10094835;29;20233;-81
2022/12/02 17:58:49;;;;;;;23.13;14.53;;;;;;;-1.11;67.07;101238.78;10101248;29;20313;-80
2022/12/02 18:04:11;;;;;;;23.30;15.53;;;;;;;-0.99;67.88;101236.91;10125563;29;20554;-80
2022/12/02 18:09:33;;;;;;;22.37;14.53;;;;;;;-0.98;66.95;101237.75;10104599;29;20229;-84
2022/12/02 18:14:56;;;;;;;19.53;14.00;;;;;;;-0.63;66.96;101240.59;10116273;29;20240;-83
2022/12/02 18:20:19;;;;;;;20.40;13.93;;;;;;;-0.85;67.97;101241.16;10111779;29;20260;-82
2022/12/02 18:25:41;;;;;;;19.00;13.87;;;;;;;-0.73;68.58;101243.13;10117530;29;20610;-81
2022/12/02 18:31:06;;;;;;;19.53;13.90;;;;;;;-1.67;70.68;101242.78;10108849;29;20811;-83
2022/12/02 18:36:28;;;;;;;22.73;14.90;;;;;;;-0.68;68.55;101243.22;10118165;29;20273;-85
2022/12/02 18:41:50;;;;;;;21.20;15.17;;;;;;;-1.35;70.82;101245.31;10120792;29;20265;-81
2022/12/02 18:47:12;;;;;;;20.13;13.70;;;;;;;-1.50;70.88;101244.88;10120491;29;20257;-82
2022/12/02 18:52:35;;;;;;;21.00;14.50;;;;;;;-0.90;69.38;101240.19;10092339;29;20293;-81
2022/12/02 18:57:57;;;;;;;21.33;14.03;;;;;;;-0.87;69.33;101240.56;10108243;29;20243;-81
2022/12/02 19:03:19;;;;;;;20.67;14.33;;;;;;;-1.30;71.09;101235.25;10111545;29;20229;-83
2022/12/02 19:08:41;;;;;;;21.33;14.33;;;;;;;-1.39;70.21;101241.34;10098967;29;20597;-84
2022/12/02 19:14:03;;;;;;;21.07;14.03;;;;;;;-1.26;70.63;101236.47;10086924;29;20297;-81
2022/12/02 19:19:26;;;;;;;21.17;15.20;;;;;;;-0.90;70.03;101223.59;10102191;29;20292;-79
2022/12/02 19:24:48;;;;;;;20.47;14.97;;;;;;;-1.22;70.87;101232.16;10102992;29;20320;-80
2022/12/02 19:30:10;;;;;;;21.13;14.60;;;;;;;-1.15;70.48;101226.53;10108466;29;20228;-81
2022/12/02 19:35:32;;;;;;;20.60;14.23;;;;;;;-1.52;71.36;101224.94;10109262;29;20280;-80
2022/12/02 19:40:54;;;;;;;22.13;14.20;;;;;;;-1.02;70.84;101226.34;10091797;29;20589;-81
2022/12/02 19:46:16;;;;;;;16.37;12.47;;;;;;;-1.61;71.75;101225.25;10100596;29;20290;-82
2022/12/02 19:51:39;;;;;;;18.80;13.07;;;;;;;-1.53;70.64;101226.03;10099775;29;20264;-82
2022/12/02 19:57:02;;;;;;;20.50;12.77;;;;;;;-0.94;71.51;101216.84;10108956;29;20723;-81
2022/12/02 20:02:24;;;;;;;21.60;14.53;;;;;;;-0.83;68.79;101224.31;10113257;29;20600;-81
2022/12/02 20:07:47;;;;;;;19.00;13.57;;;;;;;-1.12;70.29;101214.97;10098946;29;20557;-82
2022/12/02 20:13:09;;;;;;;20.03;14.33;;;;;;;-0.95;70.73;101215.16;10105551;29;20244;-83
2022/12/02 20:18:31;;;;;;;18.70;13.13;;;;;;;-0.95;69.33;101216.00;10109822;29;20328;-83
2022/12/02 20:23:53;;;;;;;19.13;13.40;;;;;;;-1.74;71.93;101217.13;10113030;29;20626;-84
2022/12/02 20:29:15;;;;;;;22.13;14.37;;;;;;;-1.44;71.61;101219.94;10103834;29;20535;-80
2022/12/02 20:34:39;;;;;;;19.20;14.07;;;;;;;-1.12;70.93;101214.16;10099116;29;20221;-81
2022/12/02 20:40:02;;;;;;;19.37;13.03;;;;;;;-1.04;69.97;101216.56;10112235;29;20252;-84
2022/12/02 20:45:24;;;;;;;19.00;13.03;;;;;;;-0.90;68.49;101213.38;10115396;29;20221;-81
2022/12/02 20:50:47;;;;;;;18.63;12.60;;;;;;;-1.10;70.75;101201.75;10114664;29;20701;-83
2022/12/02 20:56:09;;;;;;;19.63;13.30;;;;;;;-1.62;71.82;101204.22;10128443;29;20301;-81
2022/12/02 21:01:31;;;;;;;17.80;12.93;;;;;;;-1.35;70.76;101209.38;10126346;29;20791;-80
2022/12/02 21:06:53;;;;;;;18.77;12.90;;;;;;;-1.04;70.51;101211.88;10115006;29;20625;-83
2022/12/02 21:12:15;;;;;;;19.10;12.37;;;;;;;-1.28;71.46;101205.44;10128511;29;20277;-81
2022/12/02 21:17:37;;;;;;;17.17;11.57;;;;;;;-1.44;71.42;101210.78;10118161;29;20372;-80
2022/12/02 21:23:00;;;;;;;19.10;13.77;;;;;;;-1.03;70.19;101207.19;10128327;29;20262;-81
2022/12/02 21:28:22;;;;;;;17.63;11.73;;;;;;;-1.49;71.36;101207.88;10095918;29;20232;-80
2022/12/02 21:33:45;;;;;;;17.30;12.77;;;;;;;-1.26;70.74;101202.44;10129323;29;20229;-86
2022/12/02 21:39:07;;;;;;;18.37;12.80;;;;;;;-1.16;69.98;101199.09;10114751;29;20312;-80
2022/12/02 21:44:30;;;;;;;16.90;12.47;;;;;;;-1.39;69.91;101199.88;10095303;29;20288;-81
2022/12/02 21:49:52;;;;;;;16.43;11.57;;;;;;;-1.34;70.85;101198.06;10103936;29;20265;-80
2022/12/02 21:55:14;;;;;;;16.53;11.40;;;;;;;-1.13;70.44;101195.88;10097821;29;20220;-80
2022/12/02 22:00:36;;;;;;;15.20;11.43;;;;;;;-1.07;68.98;101204.06;10094190;29;20281;-81
2022/12/02 22:05:59;;;;;;;15.20;11.03;;;;;;;-0.99;68.70;101203.69;10112860;29;20295;-81
2022/12/02 22:11:21;;;;;;;16.77;11.70;;;;;;;-1.31;68.93;101207.84;10123048;29;20503;-84
2022/12/02 22:16:43;;;;;;;15.53;11.07;;;;;;;-1.15;68.98;101212.69;10121215;29;20232;-81
2022/12/02 22:22:05;;;;;;;15.80;11.13;;;;;;;-1.41;69.85;101213.94;10112709;29;20233;-81
2022/12/02 22:27:27;;;;;;;17.03;11.23;;;;;;;-1.37;68.90;101211.53;10110259;29;20225;-80
2022/12/02 22:32:49;;;;;;;15.43;11.10;;;;;;;-0.94;68.00;101212.16;10109290;29;20760;-81
2022/12/02 22:38:12;;;;;;;15.37;11.00;;;;;;;-1.41;68.69;101205.63;10125178;29;20280;-81
2022/12/02 22:43:34;;;;;;;14.97;10.00;;;;;;;-1.22;68.09;101204.50;10127093;29;20233;-80
2022/12/02 22:48:56;;;;;;;13.40;10.37;;;;;;;-0.79;67.75;101194.25;10123116;29;20658;-80
2022/12/02 22:54:18;;;;;;;12.87;9.87;;;;;;;-0.75;68.18;101198.22;10125553;29;20228;-81
2022/12/02 22:59:40;;;;;;;12.80;9.83;;;;;;;-1.03;68.29;101196.97;10105583;29;20304;-82
2022/12/02 23:05:03;;;;;;;13.43;9.93;;;;;;;-0.96;67.81;101203.22;10120719;29;21576;-80
2022/12/02 23:10:25;;;;;;;13.57;9.50;;;;;;;-0.97;67.01;101195.16;10094800;29;20300;-80
2022/12/02 23:15:48;;;;;;;12.33;8.87;;;;;;;-1.13;68.35;101193.94;10112444;29;20229;-80
2022/12/02 23:21:10;;;;;;;12.77;9.13;;;;;;;-1.07;66.72;101186.59;10119224;29;20269;-80
2022/12/02 23:26:32;;;;;;;12.30;8.87;;;;;;;-1.21;67.32;101188.75;10110965;29;20241;-79
2022/12/02 23:31:55;;;;;;;12.60;9.03;;;;;;;-0.66;65.04;101174.63;10107394;29;20288;-79
2022/12/02 23:37:17;;;;;;;11.80;9.43;;;;;;;-0.74;65.64;101175.00;10119995;29;20249;-80
2022/12/02 23:42:39;;;;;;;11.07;8.87;;;;;;;-1.02;66.40;101171.00;10112011;29;20319;-80
2022/12/02 23:48:01;;;;;;;11.20;8.97;;;;;;;-1.00;66.63;101163.31;10113714;29;20288;-80
2022/12/02 23:53:23;;;;;;;12.97;8.40;;;;;;;-0.69;65.36;101164.03;10118371;29;20232;-80
2022/12/02 23:58:45;;;;;;;11.87;8.80;;;;;;;-0.36;65.30;101169.81;10117429;29;20249;-81
